Brookfield Center, Connecticut
Current Conditions -  °F | °C
As of 10:53 AM on Friday 24 Oct 2014 (Local Time) from KDXR Reporting Station
Overcast Overcast  
Wind Chill: 51°   Ceiling: 2200
Heat Index: 51°   Visibility: 10mi
Dew Point: 42°   Wind: 10mph
Humidity: 71%   Direction: 320°NW
Pressure: 29.82"   Gusts: 22mph
Location:  41.4668°N, 73.3928°W
Report Text: KDXR 241453Z 32009G19KT 10SM OVC022 11/06 A2982 RMK AO2 RAB31E41 SLP096 P0000 60001 T01060056 50003
Loading
Personal Weather Stations






























Interactive Weather Map
Tropical Storm Tracking
New forecast layout! Learn more

10-Day Weather Forecast

Advertisements
Track Severe Weather on mobile